Flight Track Log - Related Links

Times and Time Zones

All times are in EDT time to prevent confusion due to time zone crossing. See the SKW5524 flight status page for this flight to view local times or setup timezone preferences in your user account.

Time Position Orientation Groundspeed Altitude Reporting Facility
EDT Latitude Longitude Course Direction KTS MPH feet Rate Location/Type
Tue 11:40:18 AM 39.2833 -106.9317 306° West 235 270 11,000  Level Denver Center
Tue 11:41:20 AM 39.3192 -107.0000 304° West 246 283 13,100 1,790 Climbing Denver Center
Tue 11:42:00 AM 39.3610 -106.4063 69° East  Level Estimated
Tue 11:42:22 AM 39.3886 -106.9503 29° Northeast 308 354 14,700  Level Denver Center
Tue 11:43:00 AM 39.3207 -106.2840 101° East  Level FlightAware
Tue 11:43:24 AM 39.3900 -106.8003 89° East 366 421 17,100  Level Denver Center
Tue 11:45:28 AM 39.3561 -106.5086 73° East 386 444 20,900 1,258 Climbing Denver Center
Tue 11:46:30 AM 39.3369 -106.3683 100° East 408 470 21,000 48 Climbing Denver Center
Tue 11:47:32 AM 39.3133 -106.2050 101° East 416 479 21,000  Level Denver Center
Tue 11:48:34 AM 39.2944 -106.0681 100° East 438 504 21,000  Level Denver Center
Tue 11:49:37 AM 39.2986 -105.9125 88° East 436 502 21,000  Level Denver Center
Tue 11:50:39 AM 39.3089 -105.7436 85° East 393 452 21,000 -97 Level Denver Center
Tue 11:51:41 AM 39.3347 -105.6200 75° East 365 420 20,800 -290 Descending Denver Center
Tue 11:52:43 AM 39.3825 -105.5092 61° Northeast 354 407 20,400 -629 Descending Denver Center
Tue 11:53:45 AM 39.4350 -105.4047 57° Northeast 331 381 19,500 -1,161 Descending Denver Center
Tue 11:54:47 AM 39.4894 -105.3033 55° Northeast 318 366 18,000 -1,306 Descending Denver Center
Tue 11:55:49 AM 39.5369 -105.2108 56° Northeast 314 361 16,800 -1,005 Descending Denver Center
Tue 11:58:10 AM 39.6500 -105.0000 55° Northeast 303 349 14,600 -905 Descending Denver TRACON
Tue 11:59:08 AM 39.7000 -104.9167 52° Northeast 301 346 13,800 -841 Descending Denver TRACON
Tue 11:59:57 AM 39.7367 -104.8481 55° Northeast 293 337 13,100 -862 Descending Denver Center
Tue 12:02:02 PM 39.8894 -104.8400 North 250 288 11,300 -674 Descending Denver Center
Tue 12:03:04 PM 39.9497 -104.8397 360° North 219 252 11,000 -145 Descending Denver Center
Tue 12:04:06 PM 40.0044 -104.8400 360° North 201 231 11,000 -794 Level Denver Center
Tue 12:05:20 PM 40.0797 -104.8408 360° North 206 237 9,200 -1,085 Descending Denver Center
Tue 12:07:03 PM 40.0667 -104.7500 101° East 233 268 7,800 -732 Descending Denver TRACON
Tue 12:08:04 PM 40.0167 -104.7000 143° Southeast 208 239 7,200 -534 Descending Denver TRACON
Tue 12:09:29 PM 39.9508 -104.6953 177° South 184 212 6,500 -653 Descending Denver Center
Tue 12:10:31 PM 39.9069 -104.6958 181° South 151 174 5,600 -532 Descending Denver Center
Tue 12:11:33 PM 39.8747 -104.6956 180° South 130 150 5,400 -194 Descending Denver Center

Login

Don't have an account? Register now (free) for customized features, flight alerts, and more!